Airfield :
LOGIN :

Register | Disclaimer

   EN    FR    IT 

 










Legend :    VFR   Marginal VFR   IFR   Intensive IFR   Very Intensive IFR
Visi :
Ceiling :
>= 8 km
>= 3000ft
5 to 8 km
1000 to 3000 ft
1500m to 5 km
500 to 1000 ft
800 to 1500m
200 to 500 ft
< 800m
< 200 ft
Symbols :   Thunderstorms  Fog  Heavy snow  Heavy precipitations  Wind > 20 kt
SIGMETs :     Misc.  Thunderstorms  Icing  Turbulence  Mountain Waves  Volcanic Ashes







- Airport Elevation : 459 ft
- IATA code : CER
- Download approach charts


LFRC - Cherbourg / Maupertus

CURRENT METAR :
  • 250130Z AUTO 03003KT 360V060 3400 BR BKN001/// BKN008/// OVC094/// ///TCU 14/14 Q1017

EXPIRED METARs :
  • 250100Z AUTO 02004KT 340V050 2500 BR BKN001/// OVC088/// ///TCU 14/14 Q1017
  • 250030Z AUTO VRB03KT 5000 BR ///CB 14/13 Q1017
  • 250000Z AUTO VRB03KT 7000 SCT003/// BKN033/// BKN092/// ///CB 14/13 Q1018
  • 242330Z AUTO 36008KT 310V030 9999 SCT041/// SCT068/// BKN100/// ///CB 14/13 Q1017
  • 242300Z AUTO 28007KT 260V330 2800 +RA BR VCTS SCT002/// BKN045/// OVC054/// ///CB 14/14 Q1018

Expired Forecast.
No reported NOTAMs for that airfield.
1 SIGMET reported for the Brest FIR (LFRR) :
 
Embedded thunderstorms and hail
LFRR SIGMET 8 VALID 242300/250300 LFPW
LFRR BREST FIR/UIR EMBD TSGR FCST WI N5000 W00215 - N5000 W00200 - N5000 W00015 - N4830 W00015 - N4830 W00145 - N5000 W00215 TOP FL380 MOV NE 20KT NC=



MET'MAP, your aeronautical weather chart ! - Copyright ORBIFLY December 2007 - Disclaimer

ORBIFLY MET'MAP TEAM :

Programming & Development : Alexandra Zaïnal
Concept & Development : Baudouin d'Aumeries
Co-Development & Prog : Marc-Olivier Méhu
Technical & hardware support : Manuel Goepfert

Contact : metmap@orbifly.com




SOURCES & CREDITS :

   NOAA